createdAt,value
2022-11-15T00:03:56.596Z,18.8
2022-11-15T00:09:46.339Z,18.8
2022-11-15T00:20:31.309Z,18.6
2022-11-15T00:26:08.856Z,18.6
2022-11-15T00:31:32.436Z,18.6
2022-11-15T00:37:11.099Z,18.5
2022-11-15T00:42:50.417Z,18.4
2022-11-15T00:48:11.703Z,18.4
2022-11-15T00:53:35.108Z,18.3
2022-11-15T00:59:12.469Z,18.3
2022-11-15T01:04:36.420Z,18.3
2022-11-15T01:10:14.283Z,18.2
2022-11-15T01:15:51.398Z,18.1
2022-11-15T01:21:29.089Z,18.1
2022-11-15T01:27:07.417Z,18
2022-11-15T01:32:44.745Z,17.9
2022-11-15T01:38:22.163Z,17.9
2022-11-15T01:43:59.669Z,17.9
2022-11-15T01:49:21.041Z,17.8
2022-11-15T01:54:59.127Z,17.8
2022-11-15T02:00:36.792Z,17.8
2022-11-15T02:05:59.315Z,17.7
2022-11-15T02:10:50.531Z,17.6
2022-11-15T02:16:27.373Z,17.6
2022-11-15T02:22:03.591Z,17.5
2022-11-15T02:27:10.695Z,17.5
2022-11-15T02:32:47.895Z,17.4
2022-11-15T02:38:24.673Z,17.4
2022-11-15T02:43:46.609Z,17.3
2022-11-15T02:49:23.757Z,17.3
2022-11-15T02:54:14.589Z,17.2
2022-11-15T02:59:51.414Z,17.2
2022-11-15T03:05:14.179Z,17.1
2022-11-15T03:10:36.272Z,17.1
2022-11-15T03:26:24.691Z,16.9
2022-11-15T03:31:49.944Z,16.9
2022-11-15T03:37:27.107Z,16.9
2022-11-15T03:42:54.481Z,16.8
2022-11-15T03:48:31.468Z,16.8
2022-11-15T03:54:08.681Z,16.7
2022-11-15T03:59:30.028Z,16.7
2022-11-15T04:04:37.620Z,16.7
2022-11-15T04:10:16.296Z,16.6
2022-11-15T04:15:06.127Z,16.6
2022-11-15T04:20:43.649Z,16.6
2022-11-15T04:26:27.372Z,16.5
2022-11-15T04:31:48.988Z,16.4
2022-11-15T04:37:26.973Z,16.4
2022-11-15T04:43:09.851Z,16.4
2022-11-15T04:48:46.087Z,16.3
2022-11-15T04:54:08.378Z,16.3
2022-11-15T04:59:36.639Z,16.3
2022-11-15T05:05:19.062Z,16.3
2022-11-15T05:10:41.710Z,16.2
2022-11-15T05:16:04.514Z,16.2
2022-11-15T05:21:43.256Z,16.2
2022-11-15T05:27:06.090Z,16.1
2022-11-15T05:32:43.417Z,16.1
2022-11-15T05:38:05.500Z,16.1
2022-11-15T05:43:27.148Z,16.1
2022-11-15T05:49:04.968Z,16.1
2022-11-15T05:54:30.910Z,16
2022-11-15T05:59:52.633Z,16
2022-11-15T06:05:16.121Z,16
2022-11-15T06:10:53.611Z,15.9
2022-11-15T06:16:31.622Z,15.9
2022-11-15T06:21:59.435Z,15.9
2022-11-15T06:27:36.267Z,15.9
2022-11-15T06:32:58.047Z,15.9
2022-11-15T06:38:35.615Z,15.9
2022-11-15T06:44:12.565Z,15.9
2022-11-15T06:49:49.817Z,15.8
2022-11-15T06:55:27.714Z,15.8
2022-11-15T07:01:05.009Z,15.8
2022-11-15T07:06:43.013Z,15.8
2022-11-15T07:12:24.345Z,15.8
2022-11-15T07:18:02.990Z,15.8
2022-11-15T07:23:25.580Z,15.8
2022-11-15T07:28:49.962Z,15.8
2022-11-15T07:34:11.504Z,15.8
2022-11-15T07:39:49.495Z,15.8
2022-11-15T07:45:27.268Z,15.8
2022-11-15T07:50:59.405Z,15.7
2022-11-15T07:56:22.403Z,15.8
2022-11-15T08:02:00.991Z,15.7
2022-11-15T08:07:39.778Z,15.7
2022-11-15T08:13:17.709Z,15.7
2022-11-15T08:19:00.911Z,15.7
2022-11-15T08:24:39.204Z,15.7
2022-11-15T08:30:17.461Z,15.7
2022-11-15T08:36:00.024Z,15.7
2022-11-15T08:41:47.838Z,15.6
2022-11-15T08:47:26.669Z,15.7
2022-11-15T08:53:04.638Z,15.6
2022-11-15T08:58:44.667Z,15.6
2022-11-15T09:04:23.084Z,15.6
2022-11-15T09:10:30.311Z,15.6
2022-11-15T09:16:12.727Z,15.6
2022-11-15T09:21:58.449Z,15.6
2022-11-15T09:33:52.579Z,15.6
2022-11-15T09:39:37.243Z,15.6
2022-11-15T09:45:16.472Z,15.6
2022-11-15T09:50:53.437Z,15.6
2022-11-15T09:57:39.143Z,15.6
2022-11-15T10:03:33.428Z,15.6
2022-11-15T10:09:00.988Z,15.6
2022-11-15T10:15:18.314Z,15.6
2022-11-15T10:20:57.006Z,15.6
2022-11-15T10:26:23.525Z,15.6
2022-11-15T10:32:04.938Z,15.6
2022-11-15T10:37:41.834Z,15.6
2022-11-15T10:44:59.987Z,15.6
2022-11-15T10:51:16.513Z,15.6
2022-11-15T10:56:59.137Z,15.6
2022-11-15T11:02:42.238Z,15.6
2022-11-15T11:08:27.114Z,15.6
2022-11-15T11:14:40.063Z,15.6
2022-11-15T11:20:17.799Z,15.6
2022-11-15T11:25:45.727Z,15.6
2022-11-15T11:31:23.796Z,15.6
2022-11-15T11:37:05.228Z,15.6
2022-11-15T11:42:28.182Z,15.6
2022-11-15T11:48:05.586Z,15.6
2022-11-15T11:53:44.449Z,15.6
2022-11-15T11:59:22.735Z,15.6
2022-11-15T12:05:06.431Z,15.6
2022-11-15T12:10:49.417Z,15.6
2022-11-15T12:16:28.068Z,15.6
2022-11-15T12:22:06.038Z,15.6
2022-11-15T12:27:43.579Z,15.6
2022-11-15T12:33:34.509Z,15.6
2022-11-15T12:39:11.812Z,15.6
2022-11-15T12:44:21.769Z,15.6
2022-11-15T12:49:28.847Z,15.6
2022-11-15T12:54:50.671Z,15.6
2022-11-15T13:00:29.196Z,15.6
2022-11-15T13:06:07.170Z,15.6
2022-11-15T13:11:48.167Z,15.6
2022-11-15T13:17:25.328Z,15.6
2022-11-15T13:23:03.627Z,15.6
2022-11-15T13:28:25.649Z,15.6
2022-11-15T13:33:52.282Z,15.6
2022-11-15T13:39:59.034Z,15.6
2022-11-15T13:45:36.738Z,15.6
2022-11-15T13:51:19.546Z,15.6
2022-11-15T13:56:58.045Z,15.5
2022-11-15T14:02:36.194Z,15.5
2022-11-15T14:08:18.379Z,15.5
2022-11-15T14:13:57.041Z,15.4
2022-11-15T14:19:19.843Z,15.4
2022-11-15T14:24:41.655Z,15.4
2022-11-15T14:30:07.205Z,15.4
2022-11-15T14:35:28.394Z,15.4
2022-11-15T14:41:06.342Z,15.4
2022-11-15T14:46:13.095Z,15.4
2022-11-15T14:51:36.202Z,15.6
2022-11-15T14:57:04.201Z,15.6
2022-11-15T15:02:32.649Z,15.7
2022-11-15T15:07:44.278Z,15.8
2022-11-15T15:13:47.276Z,15.9
2022-11-15T15:19:11.305Z,16.2
2022-11-15T15:24:41.173Z,16.4
2022-11-15T15:29:48.526Z,16.8
2022-11-15T15:35:10.835Z,17.1
2022-11-15T15:40:33.424Z,17.6
2022-11-15T15:45:57.464Z,18
2022-11-15T15:51:28.611Z,18.4
2022-11-15T16:01:29.964Z,18.9
2022-11-15T16:06:52.204Z,19.2
2022-11-15T16:12:28.862Z,19.6
2022-11-15T16:17:51.589Z,19.9
2022-11-15T16:23:14.002Z,20.2
2022-11-15T16:28:36.937Z,20.5
2022-11-15T16:34:01.674Z,20.9
2022-11-15T16:39:34.663Z,21.2
2022-11-15T16:44:41.624Z,21.5
2022-11-15T16:50:08.213Z,21.8
2022-11-15T16:55:30.382Z,22
2022-11-15T17:00:52.972Z,22.3
2022-11-15T17:06:04.133Z,22.4
2022-11-15T17:11:11.728Z,22.6
2022-11-15T17:16:33.361Z,22.8
2022-11-15T17:21:55.456Z,22.9
2022-11-15T17:27:37.908Z,23
2022-11-15T17:32:29.736Z,23.1
2022-11-15T17:37:51.935Z,23.4
2022-11-15T17:43:29.676Z,23.7
2022-11-15T17:48:52.587Z,24
2022-11-15T17:54:20.365Z,24.3
2022-11-15T18:00:05.313Z,24.4
2022-11-15T18:05:29.343Z,24.5
2022-11-15T18:11:07.644Z,24.6
2022-11-15T18:16:29.897Z,24.8
2022-11-15T18:22:12.257Z,25
2022-11-15T18:27:51.672Z,25.3
2022-11-15T18:33:14.317Z,25.6
2022-11-15T18:38:38.273Z,25.8
2022-11-15T18:44:20.806Z,26.1
2022-11-15T18:49:43.422Z,26.5
2022-11-15T18:55:06.222Z,26.9
2022-11-15T19:00:43.814Z,27.1
2022-11-15T19:06:26.246Z,27.3
2022-11-15T19:12:09.143Z,27.3
2022-11-15T19:17:46.425Z,27.2
2022-11-15T19:23:28.581Z,27.1
2022-11-15T19:29:06.399Z,27.1
2022-11-15T19:34:49.377Z,27.1
2022-11-15T19:40:31.588Z,27.1
2022-11-15T19:45:56.903Z,27
2022-11-15T19:51:38.937Z,26.8
2022-11-15T19:57:04.383Z,26.6
2022-11-15T20:02:42.157Z,26.4
2022-11-15T20:08:06.509Z,26.1
2022-11-15T20:13:28.609Z,25.9
2022-11-15T20:19:09.559Z,25.8
2022-11-15T20:24:47.624Z,25.6
2022-11-15T20:30:25.277Z,25.4
2022-11-15T20:36:03.350Z,25.1
2022-11-15T20:41:31.503Z,24.9
2022-11-15T20:47:08.885Z,24.6
2022-11-15T20:53:22.268Z,24.3
2022-11-15T20:58:45.158Z,24
2022-11-15T21:04:09.057Z,23.7
2022-11-15T21:09:52.685Z,23.4
2022-11-15T21:15:16.857Z,23.1
2022-11-15T21:21:00.299Z,22.9
2022-11-15T21:26:23.067Z,22.6
2022-11-15T21:32:05.676Z,22.3
2022-11-15T21:37:29.130Z,22.1
2022-11-15T21:43:07.882Z,21.9
2022-11-15T21:48:50.856Z,21.6
2022-11-15T21:54:13.047Z,25.7
2022-11-15T21:59:05.081Z,25.7
2022-11-15T22:04:28.027Z,25.3
2022-11-15T22:10:10.808Z,25.8
2022-11-15T22:15:34.798Z,25.4
2022-11-15T22:21:27.836Z,25.3
2022-11-15T22:26:55.991Z,24.8
2022-11-15T22:31:46.140Z,24.7
2022-11-15T22:37:55.008Z,24.3
2022-11-15T22:43:32.276Z,24.3
2022-11-15T22:49:09.904Z,23.8
2022-11-15T22:54:48.544Z,23.8
2022-11-15T23:00:15.569Z,23.6
2022-11-15T23:05:41.675Z,23.5
2022-11-15T23:11:19.510Z,23.4
2022-11-15T23:16:57.771Z,25.9
2022-11-15T23:22:59.055Z,26.6
2022-11-15T23:28:37.265Z,26.1
2022-11-15T23:34:19.828Z,25.8
2022-11-15T23:39:59.733Z,25.3
2022-11-15T23:45:43.598Z,24.8
2022-11-15T23:51:21.906Z,24.4
2022-11-15T23:56:57.797Z,24.1
